createdAt,value
2022-09-14T00:00:29.613Z,2.00
2022-09-14T00:02:57.737Z,1.80
2022-09-14T00:05:25.985Z,3.20
2022-09-14T00:07:53.965Z,2.60
2022-09-14T00:10:23.366Z,2.40
2022-09-14T00:12:52.708Z,2.00
2022-09-14T00:15:20.710Z,2.00
2022-09-14T00:17:48.696Z,4.00
2022-09-14T00:20:16.821Z,4.00
2022-09-14T00:22:44.806Z,4.00
2022-09-14T00:25:12.823Z,6.75
2022-09-14T00:27:40.816Z,5.00
2022-09-14T00:30:11.499Z,2.00
2022-09-14T00:32:39.605Z,2.80
2022-09-14T00:35:08.215Z,4.00
2022-09-14T00:37:36.206Z,3.60
2022-09-14T00:40:04.896Z,2.00
2022-09-14T00:42:32.934Z,4.00
2022-09-14T00:45:08.333Z,3.00
2022-09-14T00:47:37.749Z,2.00
2022-09-14T00:50:07.042Z,5.00
2022-09-14T00:52:36.336Z,3.00
2022-09-14T00:55:06.335Z,5.00
2022-09-14T00:57:37.104Z,5.00
2022-09-14T01:00:07.215Z,3.50
2022-09-14T01:02:35.467Z,3.60
2022-09-14T01:05:05.282Z,5.80
2022-09-14T01:07:56.606Z,5.00
2022-09-14T01:10:42.906Z,3.60
2022-09-14T01:13:19.079Z,2.00
2022-09-14T01:15:53.398Z,5.20
2022-09-14T01:18:23.884Z,2.60
2022-09-14T01:20:56.360Z,2.00
2022-09-14T01:23:28.730Z,3.00
2022-09-14T01:26:06.747Z,3.00
2022-09-14T01:28:37.582Z,2.00
2022-09-14T01:31:08.141Z,3.00
2022-09-14T01:33:38.409Z,4.50
2022-09-14T01:36:07.663Z,2.00
2022-09-14T01:38:37.144Z,2.00
2022-09-14T01:41:06.432Z,2.50
2022-09-14T01:43:37.716Z,4.00
2022-09-14T01:46:07.673Z,2.80
2022-09-14T01:48:36.898Z,7.00
2022-09-14T01:51:06.769Z,3.25
2022-09-14T01:53:37.881Z,2.20
2022-09-14T01:56:08.321Z,4.00
2022-09-14T01:58:38.830Z,5.00
2022-09-14T02:01:07.675Z,2.80
2022-09-14T02:03:39.814Z,7.20
2022-09-14T02:06:10.396Z,5.25
2022-09-14T02:08:38.376Z,4.00
2022-09-14T02:11:06.496Z,6.00
2022-09-14T02:13:34.514Z,5.00
2022-09-14T02:16:03.981Z,4.40
2022-09-14T02:18:32.226Z,10.25
2022-09-14T02:21:01.236Z,5.40
2022-09-14T02:23:29.534Z,4.40
2022-09-14T02:25:57.570Z,6.00
2022-09-14T02:28:25.555Z,5.00
2022-09-14T02:31:04.446Z,2.60
2022-09-14T02:33:36.646Z,3.00
2022-09-14T02:36:08.553Z,4.00
2022-09-14T02:38:40.913Z,4.00
2022-09-14T02:41:12.162Z,3.00
2022-09-14T02:43:43.908Z,4.40
2022-09-14T02:46:15.090Z,3.00
2022-09-14T02:48:48.475Z,3.50
2022-09-14T02:51:21.167Z,4.00
2022-09-14T02:53:51.650Z,4.40
2022-09-14T02:56:19.591Z,6.00
2022-09-14T02:58:47.599Z,3.00
2022-09-14T03:01:16.528Z,4.00
2022-09-14T03:03:46.036Z,3.00
2022-09-14T03:06:14.082Z,4.00
2022-09-14T03:08:42.146Z,4.75
2022-09-14T03:11:10.175Z,2.20
2022-09-14T03:13:38.281Z,3.80
2022-09-14T03:16:07.338Z,4.20
2022-09-14T03:18:35.515Z,4.00
2022-09-14T03:21:06.203Z,4.00
2022-09-14T03:23:37.635Z,2.60
2022-09-14T03:26:08.612Z,2.60
2022-09-14T03:28:36.624Z,4.75
2022-09-14T03:31:05.367Z,4.00
2022-09-14T03:33:33.609Z,4.20
2022-09-14T03:36:01.720Z,4.00
2022-09-14T03:38:31.062Z,4.00
2022-09-14T03:40:59.641Z,4.60
2022-09-14T03:43:27.701Z,3.75
2022-09-14T03:45:55.699Z,6.00
2022-09-14T03:48:23.696Z,5.00
2022-09-14T03:50:51.716Z,2.00
2022-09-14T03:53:19.950Z,7.20
2022-09-14T03:55:49.329Z,4.00
2022-09-14T03:58:17.327Z,7.40
2022-09-14T04:00:45.354Z,8.00
2022-09-14T04:03:13.402Z,7.00
2022-09-14T04:05:41.449Z,6.00
2022-09-14T04:08:09.499Z,4.20
2022-09-14T04:10:37.535Z,5.00
2022-09-14T04:13:06.878Z,4.00
2022-09-14T04:15:34.894Z,5.00
2022-09-14T04:18:02.886Z,4.00
2022-09-14T04:20:30.908Z,3.00
2022-09-14T04:22:58.905Z,5.00
2022-09-14T04:25:27.028Z,4.00
2022-09-14T04:28:16.788Z,3.00
2022-09-14T04:30:44.708Z,4.00
2022-09-14T04:33:12.707Z,5.00
2022-09-14T04:35:40.727Z,3.00
2022-09-14T04:38:08.736Z,6.00
2022-09-14T04:40:36.757Z,4.60
2022-09-14T04:43:04.782Z,7.50
2022-09-14T04:45:32.804Z,4.00
2022-09-14T04:48:02.264Z,4.00
2022-09-14T04:50:30.288Z,7.20
2022-09-14T04:53:03.411Z,7.00
2022-09-14T04:55:31.431Z,3.60
2022-09-14T04:57:59.439Z,7.00
2022-09-14T05:00:27.464Z,5.00
2022-09-14T05:02:55.492Z,2.50
2022-09-14T05:05:25.102Z,3.00
2022-09-14T05:07:53.100Z,4.00
2022-09-14T05:10:21.189Z,5.00
2022-09-14T05:12:49.188Z,4.00
2022-09-14T05:15:17.259Z,4.60
2022-09-14T05:17:45.246Z,4.00
2022-09-14T05:20:13.272Z,2.00
2022-09-14T05:22:42.614Z,4.00
2022-09-14T05:25:11.248Z,2.60
2022-09-14T05:27:39.244Z,2.20
2022-09-14T05:30:08.516Z,3.75
2022-09-14T05:32:36.546Z,4.40
2022-09-14T05:35:04.748Z,4.00
2022-09-14T05:37:32.748Z,3.60
2022-09-14T05:40:02.207Z,3.60
2022-09-14T05:42:30.254Z,5.00
2022-09-14T05:44:58.263Z,4.00
2022-09-14T05:47:26.260Z,3.00
2022-09-14T05:49:54.271Z,3.00
2022-09-14T05:52:22.258Z,5.50
2022-09-14T05:54:50.283Z,4.00
2022-09-14T05:57:19.639Z,3.80
2022-09-14T05:59:47.654Z,5.00
2022-09-14T06:02:18.170Z,4.00
2022-09-14T06:04:47.162Z,4.00
2022-09-14T06:07:18.796Z,2.50
2022-09-14T06:09:47.252Z,4.20
2022-09-14T06:12:15.656Z,2.40
2022-09-14T06:14:45.032Z,4.00
2022-09-14T06:17:13.021Z,9.00
2022-09-14T06:19:41.029Z,4.40
2022-09-14T06:22:09.030Z,9.60
2022-09-14T06:24:37.472Z,3.00
2022-09-14T06:27:06.786Z,3.00
2022-09-14T06:29:34.805Z,3.00
2022-09-14T06:32:04.589Z,4.00
2022-09-14T06:34:32.611Z,2.75
2022-09-14T06:37:00.612Z,4.00
2022-09-14T06:39:28.640Z,6.00
2022-09-14T06:41:56.650Z,5.00
2022-09-14T06:44:28.452Z,6.60
2022-09-14T06:46:56.442Z,3.00
2022-09-14T06:49:25.816Z,2.40
2022-09-14T06:51:56.065Z,3.00
2022-09-14T06:54:24.215Z,4.00
2022-09-14T06:56:52.201Z,8.00
2022-09-14T06:59:20.217Z,4.00
2022-09-14T07:01:49.783Z,2.00
2022-09-14T07:04:17.879Z,4.00
2022-09-14T07:06:48.024Z,2.50
2022-09-14T07:09:16.151Z,2.25
2022-09-14T07:11:44.392Z,3.80
2022-09-14T07:14:12.603Z,6.75
2022-09-14T07:16:41.012Z,3.00
2022-09-14T07:19:11.426Z,3.00
2022-09-14T07:21:39.473Z,6.00
2022-09-14T07:24:08.852Z,3.40
2022-09-14T07:26:41.768Z,4.00
2022-09-14T07:29:14.057Z,3.00
2022-09-14T07:31:43.239Z,3.00
2022-09-14T07:34:11.260Z,4.60
2022-09-14T07:36:39.444Z,5.00
2022-09-14T07:39:10.164Z,8.25
2022-09-14T07:41:38.154Z,3.25
2022-09-14T07:44:07.468Z,3.20
2022-09-14T07:46:39.262Z,3.00
2022-09-14T07:49:07.849Z,4.00
2022-09-14T07:51:36.873Z,7.00
2022-09-14T07:54:05.218Z,2.00
2022-09-14T07:56:35.039Z,5.00
2022-09-14T07:59:30.881Z,2.40
2022-09-14T08:01:52.097Z,2.00
2022-09-14T08:04:20.897Z,1.60
2022-09-14T08:06:48.857Z,6.00
2022-09-14T08:09:16.836Z,1.60
2022-09-14T08:11:46.184Z,1.20
2022-09-14T08:14:15.594Z,5.00
2022-09-14T08:16:43.626Z,2.40
2022-09-14T08:19:14.183Z,7.00
2022-09-14T08:21:46.512Z,4.00
2022-09-14T08:24:15.512Z,1.60
2022-09-14T08:26:44.836Z,4.00
2022-09-14T08:29:13.310Z,3.60
2022-09-14T08:31:41.362Z,5.00
2022-09-14T08:34:09.725Z,10.00
2022-09-14T08:36:38.871Z,2.00
2022-09-14T08:39:09.273Z,4.00
2022-09-14T08:41:39.821Z,2.60
2022-09-14T08:44:15.601Z,3.00
2022-09-14T08:46:44.791Z,2.00
2022-09-14T08:49:14.262Z,2.00
2022-09-14T08:51:43.158Z,3.50
2022-09-14T08:54:11.140Z,3.00
2022-09-14T08:56:41.367Z,5.00
2022-09-14T08:59:20.642Z,4.40
2022-09-14T09:01:53.630Z,4.25
2022-09-14T09:04:26.623Z,6.00
2022-09-14T09:06:58.256Z,3.50
2022-09-14T09:09:29.271Z,3.00
2022-09-14T09:11:57.230Z,3.60
2022-09-14T09:14:28.076Z,3.00
2022-09-14T09:16:57.298Z,4.00
2022-09-14T09:19:28.908Z,2.20
2022-09-14T09:21:56.917Z,3.40
2022-09-14T09:24:28.642Z,3.25
2022-09-14T09:26:56.606Z,5.60
2022-09-14T09:29:25.972Z,4.80
2022-09-14T09:32:13.822Z,3.00
2022-09-14T09:35:15.920Z,3.75
2022-09-14T09:38:15.843Z,2.25
2022-09-14T09:40:46.419Z,2.80
2022-09-14T09:43:24.455Z,3.40
2022-09-14T09:46:06.066Z,1.00
2022-09-14T09:48:40.007Z,2.60
2022-09-14T09:51:11.141Z,5.40
2022-09-14T09:53:46.500Z,1.25
2022-09-14T09:56:18.897Z,0.60
2022-09-14T09:58:51.611Z,3.60
2022-09-14T10:01:23.264Z,2.60
2022-09-14T10:04:06.413Z,7.20
2022-09-14T10:06:42.596Z,5.40
2022-09-14T10:09:14.220Z,5.00
2022-09-14T10:11:42.250Z,1.80
2022-09-14T10:14:22.043Z,1.00
2022-09-14T10:16:51.391Z,2.00
2022-09-14T10:19:22.475Z,7.00
2022-09-14T10:22:04.902Z,1.75
2022-09-14T10:24:34.172Z,1.60
2022-09-14T10:27:02.164Z,1.00
2022-09-14T10:29:35.744Z,1.00
2022-09-14T10:32:10.710Z,2.00
2022-09-14T10:34:38.718Z,2.75
2022-09-14T10:37:13.903Z,2.00
2022-09-14T10:39:45.410Z,3.50
2022-09-14T10:42:17.720Z,3.00
2022-09-14T10:44:51.616Z,1.50
2022-09-14T10:47:33.330Z,3.20
2022-09-14T10:50:08.706Z,4.40
2022-09-14T10:52:40.731Z,5.00
2022-09-14T10:55:20.618Z,5.25
2022-09-14T10:57:57.086Z,2.50
2022-09-14T11:00:25.355Z,3.00
2022-09-14T11:03:17.245Z,2.20
2022-09-14T11:05:47.616Z,6.80
2022-09-14T11:08:19.219Z,2.00
2022-09-14T11:10:56.895Z,3.00
2022-09-14T11:13:35.139Z,5.80
2022-09-14T11:16:09.323Z,3.00
2022-09-14T11:18:43.134Z,2.00
2022-09-14T11:21:16.350Z,3.40
2022-09-14T11:23:48.413Z,2.00
2022-09-14T11:26:19.298Z,4.40
2022-09-14T11:28:49.480Z,2.00
2022-09-14T11:31:20.171Z,5.50
2022-09-14T11:33:52.893Z,2.00
2022-09-14T11:36:22.270Z,2.00
2022-09-14T11:38:52.394Z,2.50
2022-09-14T11:41:25.217Z,4.80
2022-09-14T11:43:55.981Z,8.00
2022-09-14T11:46:26.938Z,11.50
2022-09-14T11:48:58.528Z,14.00
2022-09-14T11:51:29.172Z,3.00
2022-09-14T11:53:57.195Z,10.00
2022-09-14T11:56:26.861Z,2.75
2022-09-14T11:58:56.645Z,3.75
2022-09-14T12:01:32.817Z,3.00
2022-09-14T12:04:15.720Z,2.00
2022-09-14T12:06:55.151Z,2.60
2022-09-14T12:09:51.566Z,4.00
2022-09-14T12:12:36.018Z,2.00
2022-09-14T12:15:05.462Z,2.00
2022-09-14T12:17:41.721Z,5.00
2022-09-14T12:20:38.906Z,1.00
2022-09-14T12:23:12.135Z,2.00
2022-09-14T12:25:40.595Z,3.00
2022-09-14T12:28:30.874Z,1.20
2022-09-14T12:31:11.473Z,3.50
2022-09-14T12:34:01.163Z,6.00
2022-09-14T12:37:12.348Z,15.80
2022-09-14T12:39:41.950Z,3.00
2022-09-14T12:42:27.302Z,4.00
2022-09-14T12:44:55.387Z,3.60
2022-09-14T12:47:59.969Z,3.00
2022-09-14T12:50:29.402Z,5.00
2022-09-14T12:53:05.590Z,2.40
2022-09-14T12:55:55.741Z,5.00
2022-09-14T12:58:59.877Z,2.75
2022-09-14T13:01:33.500Z,3.20
2022-09-14T13:04:01.679Z,6.75
2022-09-14T13:06:34.608Z,4.00
2022-09-14T13:09:06.253Z,2.60
2022-09-14T13:11:39.395Z,2.20
2022-09-14T13:14:07.419Z,1.00
2022-09-14T13:16:40.815Z,3.00
2022-09-14T13:19:20.682Z,5.00
2022-09-14T13:21:49.239Z,6.20
2022-09-14T13:24:21.769Z,3.40
2022-09-14T13:26:51.130Z,3.20
2022-09-14T13:29:19.158Z,4.40
2022-09-14T13:31:47.164Z,2.40
2022-09-14T13:34:19.142Z,3.00
2022-09-14T13:36:47.134Z,4.00
2022-09-14T13:39:21.934Z,1.00
2022-09-14T13:41:51.276Z,3.00
2022-09-14T13:44:19.298Z,1.40
2022-09-14T13:46:47.301Z,3.60
2022-09-14T13:49:15.323Z,1.00
2022-09-14T13:51:43.324Z,1.50
2022-09-14T13:54:19.021Z,1.00
2022-09-14T13:56:47.416Z,4.00
2022-09-14T13:59:21.692Z,2.00
2022-09-14T14:01:57.933Z,0.25
2022-09-14T14:04:29.530Z,3.00
2022-09-14T14:07:08.484Z,1.80
2022-09-14T14:09:42.686Z,1.80
2022-09-14T14:12:11.528Z,2.80
2022-09-14T14:14:40.912Z,4.20
2022-09-14T14:17:36.901Z,1.40
2022-09-14T14:20:33.655Z,2.00
2022-09-14T14:23:04.678Z,3.00
2022-09-14T14:25:34.295Z,3.40
2022-09-14T14:28:03.143Z,1.00
2022-09-14T14:30:32.856Z,4.00
2022-09-14T14:33:01.469Z,4.50
2022-09-14T14:35:31.315Z,0.80
2022-09-14T14:37:59.549Z,2.20
2022-09-14T14:40:28.360Z,2.80
2022-09-14T14:42:58.180Z,1.00
2022-09-14T14:45:27.437Z,2.00
2022-09-14T14:47:57.244Z,6.60
2022-09-14T14:50:27.084Z,3.25
2022-09-14T14:52:55.125Z,3.60
2022-09-14T14:55:23.422Z,4.00
2022-09-14T14:57:51.934Z,2.00
2022-09-14T15:00:21.292Z,3.75
2022-09-14T15:02:49.360Z,2.50
2022-09-14T15:05:18.764Z,4.00
2022-09-14T15:07:47.669Z,1.75
2022-09-14T15:10:16.438Z,2.00
2022-09-14T15:12:44.489Z,2.25
2022-09-14T15:15:14.082Z,3.00
2022-09-14T15:17:42.534Z,1.60
2022-09-14T15:20:10.750Z,4.00
2022-09-14T15:22:42.856Z,3.00
2022-09-14T15:25:11.138Z,1.50
2022-09-14T15:27:39.144Z,1.00
2022-09-14T15:30:08.424Z,3.80
2022-09-14T15:32:36.447Z,2.60
2022-09-14T15:35:04.732Z,7.00
2022-09-14T15:37:32.739Z,3.00
2022-09-14T15:40:02.259Z,4.20
2022-09-14T15:42:30.315Z,4.80
2022-09-14T15:44:58.335Z,5.00
2022-09-14T15:47:26.343Z,4.00
2022-09-14T15:49:54.361Z,3.00
2022-09-14T15:52:22.371Z,1.00
2022-09-14T15:54:50.396Z,1.60
2022-09-14T15:57:19.747Z,4.00
2022-09-14T15:59:48.007Z,2.50
2022-09-14T16:02:17.037Z,4.00
2022-09-14T16:04:45.134Z,1.75
2022-09-14T16:07:13.395Z,1.20
2022-09-14T16:09:41.971Z,2.00
2022-09-14T16:12:10.243Z,2.50
2022-09-14T16:14:39.608Z,2.00
2022-09-14T16:17:08.579Z,3.00
2022-09-14T16:19:36.623Z,1.00
2022-09-14T16:22:04.658Z,1.60
2022-09-14T16:24:32.693Z,4.75
2022-09-14T16:27:00.940Z,1.60
2022-09-14T16:29:28.963Z,1.40
2022-09-14T16:31:58.391Z,6.00
2022-09-14T16:34:27.407Z,2.00
2022-09-14T16:36:55.551Z,2.40
2022-09-14T16:39:25.216Z,4.00
2022-09-14T16:41:54.057Z,1.00
2022-09-14T16:44:23.449Z,2.80
2022-09-14T16:46:51.637Z,2.00
2022-09-14T16:49:26.359Z,5.60
2022-09-14T16:51:55.428Z,4.60
2022-09-14T16:54:24.419Z,3.00
2022-09-14T16:56:54.622Z,3.75
2022-09-14T16:59:23.125Z,1.40
2022-09-14T17:01:54.683Z,3.25
2022-09-14T17:04:25.104Z,2.00
2022-09-14T17:06:53.334Z,3.00
2022-09-14T17:09:22.220Z,6.40
2022-09-14T17:11:50.274Z,2.00
2022-09-14T17:14:19.129Z,3.20
2022-09-14T17:16:47.281Z,3.00
2022-09-14T17:19:15.665Z,3.50
2022-09-14T17:21:45.766Z,5.00
2022-09-14T17:24:14.066Z,6.00
2022-09-14T17:26:42.538Z,5.40
2022-09-14T17:29:10.681Z,8.00
2022-09-14T17:31:39.678Z,10.00
2022-09-14T17:34:08.972Z,12.50
2022-09-14T17:36:38.196Z,13.25
2022-09-14T17:39:11.744Z,11.60
2022-09-14T17:41:40.808Z,10.00
2022-09-14T17:44:09.127Z,11.40
2022-09-14T17:46:44.457Z,7.00
2022-09-14T17:49:16.637Z,6.00
2022-09-14T17:51:45.337Z,8.50
2022-09-14T17:54:14.795Z,7.00
2022-09-14T17:56:42.787Z,7.00
2022-09-14T17:59:12.703Z,8.40
2022-09-14T18:01:40.979Z,6.00
2022-09-14T18:04:10.858Z,5.40
2022-09-14T18:06:39.760Z,6.00
2022-09-14T18:09:10.006Z,4.00
2022-09-14T18:11:39.375Z,3.80
2022-09-14T18:14:07.487Z,3.00
2022-09-14T18:16:35.567Z,5.40
2022-09-14T18:19:03.619Z,6.80
2022-09-14T18:21:31.616Z,6.00
2022-09-14T18:23:59.634Z,3.60
2022-09-14T18:26:27.680Z,6.20
2022-09-14T18:28:58.775Z,10.00
2022-09-14T18:31:27.012Z,7.00
2022-09-14T18:33:56.043Z,14.00
2022-09-14T18:36:24.107Z,11.40
2022-09-14T18:38:53.647Z,10.60
2022-09-14T18:41:22.090Z,9.00
2022-09-14T18:43:51.145Z,13.20
2022-09-14T18:46:22.481Z,9.00
2022-09-14T18:48:54.276Z,13.20
2022-09-14T18:51:22.373Z,13.00
2022-09-14T18:53:50.392Z,10.00
2022-09-14T18:56:19.128Z,7.75
2022-09-14T18:58:47.934Z,10.40
2022-09-14T19:01:16.123Z,9.00
2022-09-14T19:03:45.532Z,10.60
2022-09-14T19:06:14.487Z,5.25
2022-09-14T19:08:42.626Z,5.40
2022-09-14T19:11:11.863Z,3.60
2022-09-14T19:13:39.938Z,4.60
2022-09-14T19:16:08.671Z,8.00
2022-09-14T19:18:36.807Z,5.00
2022-09-14T19:21:07.464Z,6.00
2022-09-14T19:23:36.411Z,7.00
2022-09-14T19:26:06.107Z,8.00
2022-09-14T19:28:34.975Z,9.00
2022-09-14T19:31:06.404Z,7.00
2022-09-14T19:33:34.467Z,4.60
2022-09-14T19:36:08.611Z,5.20
2022-09-14T19:38:36.739Z,5.50
2022-09-14T19:41:04.876Z,7.80
2022-09-14T19:43:33.555Z,5.00
2022-09-14T19:46:04.040Z,4.00
2022-09-14T19:48:32.130Z,6.80
2022-09-14T19:51:00.959Z,4.20
2022-09-14T19:53:30.826Z,7.40
2022-09-14T19:55:58.882Z,4.20
2022-09-14T19:58:28.708Z,6.00
2022-09-14T20:00:56.838Z,7.75
2022-09-14T20:03:24.948Z,3.80
2022-09-14T20:06:00.313Z,19.75
2022-09-14T20:08:29.847Z,18.00
2022-09-14T20:10:57.986Z,26.00
2022-09-14T20:13:25.977Z,26.50
2022-09-14T20:15:54.037Z,22.00
2022-09-14T20:18:22.115Z,10.60
2022-09-14T20:20:50.111Z,9.50
2022-09-14T20:23:18.132Z,13.75
2022-09-14T20:25:47.487Z,13.00
2022-09-14T20:28:15.585Z,12.50
2022-09-14T20:30:43.611Z,9.20
2022-09-14T20:33:12.110Z,9.50
2022-09-14T20:35:40.146Z,12.00
2022-09-14T20:38:08.158Z,9.00
2022-09-14T20:40:36.194Z,9.50
2022-09-14T20:43:05.619Z,9.50
2022-09-14T20:45:33.605Z,8.00
2022-09-14T20:48:01.935Z,8.75
2022-09-14T20:50:29.925Z,7.00
2022-09-14T20:52:57.944Z,6.80
2022-09-14T20:55:25.966Z,6.50
2022-09-14T20:57:54.383Z,5.00
2022-09-14T21:00:23.727Z,5.40
2022-09-14T21:02:52.434Z,6.80
2022-09-14T21:05:20.469Z,4.00
2022-09-14T21:07:56.111Z,6.00
2022-09-14T21:10:28.630Z,6.40
2022-09-14T21:12:57.450Z,6.40
2022-09-14T21:15:26.994Z,8.00
2022-09-14T21:17:55.023Z,6.75
2022-09-14T21:20:23.024Z,5.00
2022-09-14T21:22:51.039Z,7.75
2022-09-14T21:25:19.040Z,4.00
2022-09-14T21:27:47.061Z,8.20
2022-09-14T21:30:15.067Z,6.75
2022-09-14T21:32:49.611Z,4.00
2022-09-14T21:35:17.871Z,7.60
2022-09-14T21:37:46.863Z,4.25
2022-09-14T21:40:15.111Z,4.00
2022-09-14T21:42:43.176Z,4.80
2022-09-14T21:45:11.973Z,10.00
2022-09-14T21:47:39.989Z,8.00
2022-09-14T21:50:10.507Z,7.40
2022-09-14T21:52:44.005Z,5.00
2022-09-14T21:55:12.023Z,4.75
2022-09-14T21:57:40.056Z,4.80
2022-09-14T22:00:12.234Z,3.00
2022-09-14T22:02:40.323Z,5.60
2022-09-14T22:05:10.143Z,6.60
2022-09-14T22:07:39.342Z,5.00
2022-09-14T22:10:08.630Z,4.20
2022-09-14T22:12:36.646Z,5.20
2022-09-14T22:15:04.819Z,4.00
2022-09-14T22:17:33.258Z,3.33
2022-09-14T22:20:01.254Z,4.00
2022-09-14T22:22:30.622Z,4.25
2022-09-14T22:24:58.619Z,7.00
2022-09-14T22:27:26.687Z,4.00
2022-09-14T22:29:54.790Z,4.00
2022-09-14T22:32:22.805Z,5.00
2022-09-14T22:34:51.774Z,5.50
2022-09-14T22:37:19.773Z,4.25
2022-09-14T22:39:49.197Z,5.00
2022-09-14T22:42:17.267Z,6.50
2022-09-14T22:44:45.287Z,4.00
2022-09-14T22:47:14.174Z,4.00
2022-09-14T22:49:42.241Z,5.80
2022-09-14T22:52:10.243Z,6.00
2022-09-14T22:54:38.263Z,5.00
2022-09-14T22:57:07.647Z,5.40
2022-09-14T22:59:35.671Z,4.50
2022-09-14T23:02:03.747Z,6.40
2022-09-14T23:04:32.741Z,6.80
2022-09-14T23:07:01.111Z,6.50
2022-09-14T23:09:29.145Z,6.40
2022-09-14T23:11:57.146Z,4.60
2022-09-14T23:14:26.734Z,7.60
2022-09-14T23:16:54.878Z,5.67
2022-09-14T23:19:22.970Z,6.20
2022-09-14T23:21:50.954Z,7.00
2022-09-14T23:24:18.976Z,6.00
2022-09-14T23:26:46.958Z,5.80
2022-09-14T23:29:15.963Z,6.00
2022-09-14T23:31:45.457Z,5.00
2022-09-14T23:34:13.475Z,6.00
2022-09-14T23:36:41.541Z,5.00
2022-09-14T23:39:09.555Z,5.75
2022-09-14T23:41:37.983Z,5.00
2022-09-14T23:44:06.027Z,9.00
2022-09-14T23:46:34.026Z,5.60
2022-09-14T23:49:03.402Z,6.40
2022-09-14T23:51:31.411Z,7.25
2022-09-14T23:53:59.452Z,7.40
2022-09-14T23:56:27.510Z,5.80
2022-09-14T23:58:55.531Z,4.00
